Time;durP1;ratioP1;P1;durP2;ratioP2;P2;SDS_P1;SDS_P2;PMS_P1;PMS_P2;Temp;Humidity;BMP_temperature;BMP_pressure;BME280_temperature;BME280_humidity;BME280_pressure;Samples;Min_cycle;Max_cycle;Signal;HPM_P1;HPM_P2
2022/03/30 00:00:34;;;;;;;;;44.50;36.00;;;;;15.20;54.24;99853.06;5055802;28;46721;-55
2022/03/30 00:02:59;;;;;;;;;49.00;37.75;;;;;15.16;54.29;99855.50;5055650;28;45282;-57
2022/03/30 00:05:25;;;;;;;;;39.25;36.00;;;;;15.10;53.99;99851.03;5037777;28;45440;-56
2022/03/30 00:07:51;;;;;;;;;47.25;35.75;;;;;15.09;54.50;99851.31;5037681;28;45444;-51
2022/03/30 00:10:17;;;;;;;;;42.40;36.20;;;;;15.10;54.33;99853.00;5055336;28;46580;-54
2022/03/30 00:12:42;;;;;;;;;52.50;41.00;;;;;15.00;54.07;99839.91;5053920;28;45397;-51
2022/03/30 00:15:08;;;;;;;;;45.25;35.00;;;;;15.04;54.58;99841.88;5054150;28;45443;-54
2022/03/30 00:17:34;;;;;;;;;45.25;37.75;;;;;15.04;54.38;99827.22;5037558;28;45599;-55
2022/03/30 00:20:00;;;;;;;;;43.25;37.50;;;;;15.12;54.69;99834.19;5055142;28;46042;-56
2022/03/30 00:22:26;;;;;;;;;41.75;36.25;;;;;15.13;53.99;99841.38;5054825;28;45293;-53
2022/03/30 00:24:52;;;;;;;;;49.40;37.80;;;;;14.92;54.37;99794.25;5055554;28;45244;-56
2022/03/30 00:27:17;;;;;;;;;47.75;38.00;;;;;15.13;54.31;99838.63;5054860;28;45335;-55
2022/03/30 00:29:44;;;;;;;;;50.75;40.75;;;;;15.14;54.12;99837.53;5055107;28;46043;-50
2022/03/30 00:32:10;;;;;;;;;49.80;39.20;;;;;15.12;54.12;99828.69;5054978;28;45517;-53
2022/03/30 00:34:36;;;;;;;;;46.00;38.50;;;;;14.97;54.16;99804.50;5037056;28;45386;-55
2022/03/30 00:37:01;;;;;;;;;51.00;39.75;;;;;15.12;54.08;99829.53;5037179;28;45628;-55
2022/03/30 00:39:27;;;;;;;;;50.75;40.25;;;;;14.87;54.66;99786.78;5054711;28;46151;-56
2022/03/30 00:41:52;;;;;;;;;45.75;37.75;;;;;15.08;54.21;99816.47;5020823;28;45896;-56
2022/03/30 00:44:18;;;;;;;;;52.25;41.50;;;;;15.04;54.49;99813.41;5036594;28;45431;-55
2022/03/30 00:46:44;;;;;;;;;49.00;41.25;;;;;14.72;54.21;99758.97;5037239;28;45296;-54
2022/03/30 00:49:09;;;;;;;;;54.75;41.50;;;;;15.10;54.36;99814.28;5054661;28;45678;-56
2022/03/30 00:51:35;;;;;;;;;53.50;41.25;;;;;15.07;54.53;99806.53;5036855;28;45447;-52
2022/03/30 00:54:01;;;;;;;;;52.00;42.75;;;;;15.06;54.47;99813.16;5037113;28;45426;-53
2022/03/30 00:56:28;;;;;;;;;50.75;40.75;;;;;15.07;54.54;99806.53;5039314;28;45497;-54
2022/03/30 00:58:53;;;;;;;;;48.00;39.40;;;;;15.05;54.64;99801.25;5054417;28;47006;-52
2022/03/30 01:01:20;;;;;;;;;53.50;44.25;;;;;15.00;54.81;99798.47;5054850;28;45362;-55
2022/03/30 01:03:46;;;;;;;;;52.00;38.00;;;;;14.91;55.33;99800.88;5070082;28;45507;-54
2022/03/30 01:06:11;;;;;;;;;58.25;44.50;;;;;14.81;55.98;99795.25;5053520;28;45536;-52
2022/03/30 01:08:37;;;;;;;;;55.75;44.50;;;;;14.75;55.79;99798.00;5057966;28;46495;-55
2022/03/30 01:11:03;;;;;;;;;55.50;44.25;;;;;14.72;56.04;99779.16;5058095;28;45456;-52
2022/03/30 01:13:28;;;;;;;;;56.50;43.00;;;;;14.59;56.09;99751.97;5073409;28;45441;-54
2022/03/30 01:15:54;;;;;;;;;54.50;45.50;;;;;14.59;55.77;99743.69;5056965;28;45502;-54
2022/03/30 01:18:19;;;;;;;;;53.00;42.50;;;;;14.62;56.11;99744.00;5057553;28;45541;-54
2022/03/30 01:20:49;;;;;;;;;51.50;42.25;;;;;14.87;55.70;99775.72;5058035;28;45392;-55
2022/03/30 01:23:15;;;;;;;;;59.60;44.60;;;;;14.91;55.59;99779.59;5039979;28;45364;-53
2022/03/30 01:25:40;;;;;;;;;56.00;42.00;;;;;14.90;55.62;99775.19;5056690;28;45583;-57
2022/03/30 01:28:06;;;;;;;;;54.75;43.00;;;;;14.93;55.54;99776.59;5057400;28;45374;-51
2022/03/30 01:33:15;;;;;;;;;53.00;43.60;;;;;14.34;55.59;99670.59;5057669;28;45506;-53
2022/03/30 01:35:41;;;;;;;;;53.00;44.00;;;;;14.89;55.81;99764.41;5057702;28;45352;-53
2022/03/30 01:38:07;;;;;;;;;50.75;42.00;;;;;14.90;56.10;99760.56;5057449;28;45846;-54
2022/03/30 01:40:33;;;;;;;;;53.40;42.20;;;;;14.60;55.74;99718.59;5057681;28;45482;-51
2022/03/30 01:42:58;;;;;;;;;57.50;46.75;;;;;14.86;56.01;99763.00;5057176;28;45403;-53
2022/03/30 01:45:24;;;;;;;;;57.75;45.00;;;;;14.84;55.89;99753.31;5058078;28;45245;-55
2022/03/30 01:47:54;;;;;;;;;53.00;41.75;;;;;14.69;55.93;99726.38;5057007;28;45633;-55
2022/03/30 01:50:20;;;;;;;;;56.60;44.20;;;;;14.86;55.79;99746.44;5057053;28;45311;-53
2022/03/30 01:52:46;;;;;;;;;54.75;45.00;;;;;14.84;56.10;99753.31;5057559;28;45470;-55
2022/03/30 01:55:11;;;;;;;;;54.00;44.50;;;;;14.83;55.77;99744.19;5089940;27;45470;-56
2022/03/30 01:57:37;;;;;;;;;54.25;44.25;;;;;14.76;56.33;99749.09;5056691;28;46015;-56
2022/03/30 02:00:04;;;;;;;;;57.50;43.50;;;;;14.73;56.65;99750.44;5057139;28;45297;-54
2022/03/30 02:02:30;;;;;;;;;57.60;43.20;;;;;14.69;57.13;99746.56;5057096;28;45500;-52
2022/03/30 02:04:55;;;;;;;;;60.25;45.50;;;;;14.44;57.01;99723.16;5072876;28;45485;-51
2022/03/30 02:07:21;;;;;;;;;54.50;43.75;;;;;14.52;57.67;99726.53;5043077;28;48806;-54
2022/03/30 02:09:48;;;;;;;;;57.50;47.00;;;;;14.52;57.20;99726.53;5054822;28;45982;-56
2022/03/30 02:12:13;;;;;;;;;53.50;45.50;;;;;14.56;57.37;99727.66;5056064;28;45255;-52
2022/03/30 02:14:41;;;;;;;;;52.50;43.75;;;;;14.55;57.52;99726.81;5056076;28;45331;-54
2022/03/30 02:17:06;;;;;;;;;57.50;45.25;;;;;14.52;57.64;99723.75;5055008;28;46200;-57
2022/03/30 02:19:32;;;;;;;;;59.00;45.25;;;;;14.55;57.22;99714.94;5056355;28;45392;-55
2022/03/30 02:21:58;;;;;;;;;60.75;46.00;;;;;14.55;57.47;99717.69;5054692;28;45533;-55
2022/03/30 02:24:24;;;;;;;;;56.00;42.00;;;;;14.54;57.74;99713.28;5052955;28;45294;-59
2022/03/30 02:26:50;;;;;;;;;62.00;48.25;;;;;14.43;57.80;99693.03;5038632;28;46423;-55
2022/03/30 02:29:16;;;;;;;;;56.60;47.40;;;;;14.54;57.86;99707.75;5038088;28;45376;-51
2022/03/30 02:31:42;;;;;;;;;59.80;46.60;;;;;14.34;57.87;99689.94;5072382;28;45462;-57
2022/03/30 02:34:08;;;;;;;;;60.00;46.00;;;;;14.53;58.14;99706.09;5056410;28;45367;-52
2022/03/30 02:36:34;;;;;;;;;27.25;24.50;;;;;14.48;57.59;99706.91;5056313;28;46341;-53
2022/03/30 02:39:00;;;;;;;;;54.50;42.75;;;;;14.44;57.81;99708.50;5056210;28;45393;-55
2022/03/30 02:41:26;;;;;;;;;60.00;47.75;;;;;14.27;58.12;99670.00;5056585;28;45240;-53
2022/03/30 02:43:51;;;;;;;;;57.50;46.00;;;;;14.40;58.14;99697.16;5056318;28;45416;-53
2022/03/30 02:46:17;;;;;;;;;56.00;45.00;;;;;14.43;58.32;99695.81;5056216;28;45377;-58
2022/03/30 02:48:43;;;;;;;;;64.00;49.50;;;;;14.45;57.91;99688.94;5056028;28;45387;-55
2022/03/30 02:51:09;;;;;;;;;58.75;46.00;;;;;14.45;58.28;99693.59;5056287;28;45404;-51
2022/03/30 02:53:34;;;;;;;;;57.50;45.75;;;;;14.46;57.88;99693.34;5056246;28;45442;-54
2022/03/30 02:56:00;;;;;;;;;61.75;46.75;;;;;14.46;58.19;99692.53;5055632;28;46213;-54
2022/03/30 02:58:26;;;;;;;;;58.40;47.40;;;;;14.40;57.88;99679.78;5056211;28;45619;-54
2022/03/30 03:00:54;;;;;;;;;58.50;46.00;;;;;14.42;58.07;99686.69;5056631;28;45308;-58
2022/03/30 03:03:20;;;;;;;;;64.75;49.75;;;;;14.44;57.91;99689.19;5056254;28;45318;-55
2022/03/30 03:05:45;;;;;;;;;57.25;46.50;;;;;14.42;58.11;99685.84;5056152;28;46013;-55
2022/03/30 03:08:11;;;;;;;;;60.50;46.50;;;;;14.37;58.35;99678.38;5054755;28;45529;-56
2022/03/30 03:10:38;;;;;;;;;55.40;45.00;;;;;14.40;58.03;99686.13;5038507;28;45417;-57
2022/03/30 03:13:04;;;;;;;;;60.50;45.50;;;;;14.40;58.23;99694.41;5038497;28;45603;-52
2022/03/30 03:15:33;;;;;;;;;49.25;40.25;;;;;14.36;58.85;99690.50;5055780;28;45389;-55
2022/03/30 03:17:59;;;;;;;;;51.25;42.50;;;;;14.30;58.81;99688.81;5037737;28;45406;-55
2022/03/30 03:20:25;;;;;;;;;56.00;44.25;;;;;14.34;58.88;99689.94;5056157;28;45287;-58
2022/03/30 03:22:50;;;;;;;;;49.25;40.50;;;;;14.31;58.54;99685.75;5056129;28;45397;-53
2022/03/30 03:25:16;;;;;;;;;57.50;43.75;;;;;14.22;59.46;99684.59;5056381;28;45706;-56
2022/03/30 03:27:42;;;;;;;;;58.00;45.75;;;;;13.93;59.66;99640.75;5055738;28;45439;-56
2022/03/30 03:30:08;;;;;;;;;57.75;45.50;;;;;14.11;59.26;99664.34;5054690;28;45517;-50
2022/03/30 03:32:34;;;;;;;;;59.25;46.75;;;;;14.18;59.08;99672.41;5054628;28;45549;-52
2022/03/30 03:34:59;;;;;;;;;58.25;47.50;;;;;14.23;59.38;99667.78;5037442;28;46420;-54
2022/03/30 03:37:25;;;;;;;;;62.00;45.50;;;;;14.20;59.12;99661.94;5055660;28;45402;-53
2022/03/30 03:39:50;;;;;;;;;61.00;46.50;;;;;13.76;59.16;99593.97;5055810;28;45407;-56
2022/03/30 03:42:16;;;;;;;;;56.50;43.25;;;;;14.29;59.36;99673.34;5055734;28;45619;-56
2022/03/30 03:44:42;;;;;;;;;62.50;49.00;;;;;14.21;59.16;99649.81;5070907;28;46659;-50
2022/03/30 03:47:09;;;;;;;;;60.00;45.50;;;;;14.32;59.26;99661.75;5055435;28;45293;-54
2022/03/30 03:49:35;;;;;;;;;64.50;49.00;;;;;14.10;59.39;99630.41;5055553;28;45403;-54
2022/03/30 03:52:01;;;;;;;;;60.25;47.50;;;;;14.32;59.69;99668.13;5056114;28;45433;-53
2022/03/30 03:54:26;;;;;;;;;59.25;48.50;;;;;14.34;59.34;99663.16;5055303;28;45497;-53
2022/03/30 03:56:52;;;;;;;;;66.00;49.00;;;;;14.24;59.67;99660.31;5037069;28;45380;-57
2022/03/30 03:59:18;;;;;;;;;63.75;48.00;;;;;14.15;60.04;99639.81;5037282;28;45305;-54
2022/03/30 04:01:43;;;;;;;;;63.50;48.50;;;;;14.27;59.44;99658.97;5055405;28;45236;-55
2022/03/30 04:04:09;;;;;;;;;64.25;48.00;;;;;14.28;59.24;99660.63;5054899;28;46404;-55
2022/03/30 04:06:35;;;;;;;;;65.60;48.60;;;;;14.29;59.30;99656.78;5054855;28;45448;-52
2022/03/30 04:09:01;;;;;;;;;61.75;48.25;;;;;14.31;59.45;99662.88;5039094;28;45933;-57
2022/03/30 04:11:26;;;;;;;;;57.75;45.75;;;;;14.29;59.43;99657.59;5047561;28;45369;-53
2022/03/30 04:13:51;;;;;;;;;66.00;49.25;;;;;14.31;59.67;99662.88;5054982;28;45462;-55
2022/03/30 04:16:17;;;;;;;;;65.25;49.50;;;;;14.30;59.92;99661.22;5054888;28;45324;-56
2022/03/30 04:18:43;;;;;;;;;62.50;48.25;;;;;14.10;59.74;99640.63;5054726;28;45347;-54
2022/03/30 04:21:09;;;;;;;;;63.00;50.50;;;;;14.20;59.85;99664.72;5037328;28;45338;-50
2022/03/30 04:23:35;;;;;;;;;66.75;52.25;;;;;14.03;60.21;99629.78;5070541;28;45483;-54
2022/03/30 04:26:00;;;;;;;;;65.75;51.25;;;;;14.21;60.25;99653.38;5054908;28;45374;-56
2022/03/30 04:28:26;;;;;;;;;68.50;52.75;;;;;14.22;59.87;99654.22;5055024;28;45545;-54
2022/03/30 04:30:51;;;;;;;;;67.75;52.25;;;;;14.26;59.90;99651.78;5054876;28;45421;-57
2022/03/30 04:33:17;;;;;;;;;68.50;54.75;;;;;14.25;60.27;99652.88;5054311;28;47070;-52
2022/03/30 04:35:42;;;;;;;;;69.00;53.00;;;;;14.16;60.04;99641.47;5054968;28;45430;-53
2022/03/30 04:38:08;;;;;;;;;69.50;54.50;;;;;13.94;60.28;99606.53;5053431;28;45489;-57
2022/03/30 04:40:33;;;;;;;;;71.50;55.25;;;;;14.23;59.86;99640.19;5055695;28;45381;-53
2022/03/30 04:42:59;;;;;;;;;70.25;53.25;;;;;14.26;59.88;99640.75;5058025;28;46491;-54
2022/03/30 04:45:24;;;;;;;;;71.25;53.50;;;;;14.28;59.86;99641.28;5058411;28;45310;-54
2022/03/30 04:47:51;;;;;;;;;62.75;50.00;;;;;14.00;59.50;99597.22;4994252;28;45936;-55
2022/03/30 04:50:17;;;;;;;;;63.00;50.50;;;;;14.28;59.85;99633.88;5033148;28;45334;-56
2022/03/30 04:52:42;;;;;;;;;62.75;49.50;;;;;14.28;59.76;99631.09;5058259;28;45437;-57
2022/03/30 04:55:08;;;;;;;;;66.00;48.00;;;;;14.23;59.79;99622.78;5057704;28;45370;-54
2022/03/30 04:57:34;;;;;;;;;63.50;49.75;;;;;14.28;59.74;99630.25;5058006;28;45390;-52
2022/03/30 05:00:00;;;;;;;;;65.25;50.50;;;;;14.08;59.31;99595.88;5058104;28;45445;-54
2022/03/30 05:02:26;;;;;;;;;63.00;49.25;;;;;14.29;59.30;99626.44;5057955;28;45470;-54
2022/03/30 05:04:52;;;;;;;;;63.25;50.75;;;;;14.06;59.58;99584.28;5039974;28;45406;-58
2022/03/30 05:07:18;;;;;;;;;68.25;52.25;;;;;14.26;59.25;99622.25;5057883;28;45379;-56
2022/03/30 05:09:43;;;;;;;;;67.50;51.25;;;;;14.27;59.62;99623.91;5032983;28;45639;-55
2022/03/30 05:12:09;;;;;;;;;61.25;48.00;;;;;14.21;59.53;99612.00;5037775;28;47283;-58
2022/03/30 05:14:35;;;;;;;;;69.00;51.75;;;;;14.11;59.68;99606.41;5061165;28;45395;-57
2022/03/30 05:17:01;;;;;;;;;74.75;54.75;;;;;14.19;59.74;99621.66;5073673;28;45378;-56
2022/03/30 05:19:26;;;;;;;;;63.50;48.25;;;;;14.17;59.95;99621.06;5072901;28;45638;-56
2022/03/30 05:21:52;;;;;;;;;62.50;47.50;;;;;14.17;59.71;99619.16;5057834;28;46318;-57
2022/03/30 05:24:17;;;;;;;;;64.25;51.00;;;;;14.17;59.81;99624.66;5056197;28;45335;-54
2022/03/30 05:26:43;;;;;;;;;66.00;51.50;;;;;14.21;59.69;99622.22;5057831;28;45236;-53
2022/03/30 05:29:09;;;;;;;;;62.25;49.00;;;;;14.18;59.24;99623.56;5072859;28;45459;-54
2022/03/30 05:31:34;;;;;;;;;63.75;51.75;;;;;13.85;60.06;99586.03;5039568;28;46565;-57
2022/03/30 05:34:00;;;;;;;;;63.25;48.50;;;;;14.07;59.36;99617.16;5057630;28;45387;-58
2022/03/30 05:36:25;;;;;;;;;67.00;49.75;;;;;14.15;59.78;99624.09;5057481;28;45335;-56
2022/03/30 05:38:51;;;;;;;;;63.50;50.75;;;;;14.18;59.20;99622.72;5039700;28;45410;-53
2022/03/30 05:41:19;;;;;;;;;55.00;45.75;;;;;14.17;59.55;99621.06;5057305;28;46023;-53
2022/03/30 05:43:44;;;;;;;;;63.50;49.75;;;;;14.14;59.86;99621.63;5039433;28;45504;-56
2022/03/30 05:46:11;;;;;;;;;67.00;52.25;;;;;14.14;60.63;99627.13;5057518;28;45422;-52
2022/03/30 05:48:36;;;;;;;;;64.25;51.75;;;;;14.14;60.21;99621.63;5057091;28;45500;-55
2022/03/30 05:51:02;;;;;;;;;66.75;50.25;;;;;14.10;60.55;99624.06;5057252;28;45932;-54
2022/03/30 05:53:28;;;;;;;;;67.75;51.50;;;;;13.87;60.86;99595.72;5056264;28;45394;-56
2022/03/30 05:55:55;;;;;;;;;68.75;51.00;;;;;14.07;60.39;99616.31;5055406;28;45299;-57
2022/03/30 05:58:21;;;;;;;;;62.25;48.50;;;;;13.99;60.47;99603.84;5057883;28;45326;-54
2022/03/30 06:00:46;;;;;;;;;68.75;51.75;;;;;14.16;60.89;99622.16;5038869;28;46630;-55
2022/03/30 06:03:12;;;;;;;;;64.25;49.00;;;;;13.59;61.56;99539.78;5039119;28;45444;-58
2022/03/30 06:05:37;;;;;;;;;64.25;52.50;;;;;14.09;61.65;99623.22;5038866;28;45871;-56
2022/03/30 06:08:04;;;;;;;;;55.00;44.75;;;;;14.09;61.63;99627.94;5056171;28;45613;-52
2022/03/30 06:10:30;;;;;;;;;62.00;50.00;;;;;14.10;62.08;99640.63;5038934;28;46284;-54
2022/03/30 06:12:55;;;;;;;;;66.75;49.00;;;;;14.09;62.09;99638.97;5057096;28;45475;-57
2022/03/30 06:15:22;;;;;;;;;69.75;53.50;;;;;14.00;61.83;99622.06;5055920;28;45318;-55
2022/03/30 06:17:48;;;;;;;;;65.25;50.25;;;;;13.93;62.15;99613.16;5057181;28;45315;-58
2022/03/30 06:20:13;;;;;;;;;62.25;49.75;;;;;13.79;62.27;99590.69;5056971;28;45458;-51
2022/03/30 06:22:42;;;;;;;;;62.25;47.00;;;;;14.12;62.63;99640.34;5055558;28;45395;-55
2022/03/30 06:25:09;;;;;;;;;64.75;49.50;;;;;14.14;61.73;99638.97;5038894;28;45457;-53
2022/03/30 06:27:36;;;;;;;;;63.50;48.75;;;;;14.17;61.61;99644.00;5057023;28;45446;-55
2022/03/30 06:30:03;;;;;;;;;58.75;45.25;;;;;14.18;61.70;99644.81;5056737;28;46614;-52
2022/03/30 06:32:29;;;;;;;;;67.00;53.00;;;;;14.18;61.78;99645.66;5056826;28;45351;-54
2022/03/30 06:34:54;;;;;;;;;64.50;50.75;;;;;14.20;61.73;99637.94;5056904;28;45290;-55
2022/03/30 06:37:20;;;;;;;;;68.75;52.50;;;;;14.17;61.95;99637.63;5057094;28;45611;-54
2022/03/30 06:39:45;;;;;;;;;68.25;50.50;;;;;14.22;62.13;99641.28;5038551;28;47476;-58
2022/03/30 06:42:11;;;;;;;;;70.25;52.75;;;;;14.05;62.30;99616.56;5038780;28;45663;-54
2022/03/30 06:44:37;;;;;;;;;62.25;50.00;;;;;14.21;62.25;99650.63;5022226;28;46162;-58
2022/03/30 06:47:03;;;;;;;;;58.25;48.00;;;;;14.22;62.59;99638.53;5036244;28;45373;-55
2022/03/30 06:49:28;;;;;;;;;69.00;51.50;;;;;14.18;62.62;99647.56;5056240;28;46542;-53
2022/03/30 06:51:54;;;;;;;;;65.25;50.25;;;;;14.06;63.07;99631.19;5055021;28;45932;-56
2022/03/30 06:54:19;;;;;;;;;65.00;51.00;;;;;14.14;62.54;99644.50;5055245;28;45327;-57
2022/03/30 06:56:46;;;;;;;;;66.25;52.50;;;;;14.07;63.69;99635.59;5056429;28;45512;-59
2022/03/30 06:59:13;;;;;;;;;67.25;51.00;;;;;14.19;62.96;99650.06;5056428;28;46898;-49
2022/03/30 07:01:38;;;;;;;;;64.25;51.75;;;;;14.18;63.34;99650.31;5056000;28;45278;-53
2022/03/30 07:04:04;;;;;;;;;69.50;53.25;;;;;14.17;63.61;99643.16;5055517;28;45339;-55
2022/03/30 07:06:30;;;;;;;;;66.00;48.00;;;;;14.15;63.15;99653.63;5038106;28;45671;-56
2022/03/30 07:11:39;;;;;;;;;62.50;50.00;;;;;14.10;63.56;99648.91;5056225;28;45292;-57
2022/03/30 07:14:05;;;;;;;;;72.75;54.25;;;;;14.08;63.56;99651.91;5072015;28;45445;-54
2022/03/30 07:16:30;;;;;;;;;68.50;53.50;;;;;14.03;63.79;99649.09;5056421;28;45395;-57
2022/03/30 07:18:56;;;;;;;;;69.50;54.00;;;;;13.94;63.91;99651.50;5055645;28;45752;-55
2022/03/30 07:21:22;;;;;;;;;67.25;50.75;;;;;13.44;64.33;99589.22;5054271;28;45800;-59
2022/03/30 07:23:48;;;;;;;;;70.00;52.25;;;;;13.88;63.97;99652.53;5056219;28;45349;-54
2022/03/30 07:26:13;;;;;;;;;71.00;53.25;;;;;13.86;63.98;99648.41;5055911;28;45392;-51
2022/03/30 07:28:39;;;;;;;;;68.00;53.00;;;;;13.86;64.62;99642.88;5071530;28;46023;-55
2022/03/30 07:31:04;;;;;;;;;70.50;54.00;;;;;13.85;64.39;99644.81;5055745;28;45421;-57
2022/03/30 07:33:32;;;;;;;;;69.50;53.00;;;;;13.69;64.56;99622.59;5055968;28;45346;-56
2022/03/30 07:35:58;;;;;;;;;71.25;56.50;;;;;13.76;65.06;99644.44;5037444;28;45436;-56
2022/03/30 07:38:23;;;;;;;;;70.00;55.50;;;;;13.76;65.07;99646.38;5055473;28;45304;-55
2022/03/30 07:40:49;;;;;;;;;70.00;53.75;;;;;13.64;64.77;99619.78;5055778;28;45389;-53
2022/03/30 07:43:15;;;;;;;;;70.50;54.50;;;;;13.78;65.32;99642.22;5037507;28;45393;-55
2022/03/30 07:45:41;;;;;;;;;74.25;57.00;;;;;13.67;65.04;99641.31;5046034;28;45410;-52
2022/03/30 07:48:08;;;;;;;;;70.75;55.00;;;;;13.65;65.39;99640.75;5053190;28;46104;-57
2022/03/30 07:50:34;;;;;;;;;73.50;57.75;;;;;13.42;65.37;99606.00;5052768;28;45549;-55
2022/03/30 07:53:00;;;;;;;;;73.00;56.67;;;;;13.52;65.68;99627.38;5071589;28;45401;-56
2022/03/30 07:55:26;;;;;;;;;73.50;55.00;;;;;13.64;65.05;99643.75;5031891;28;45606;-51
2022/03/30 07:57:52;;;;;;;;;71.50;52.25;;;;;13.67;64.79;99644.06;5050760;28;46676;-54
2022/03/30 08:00:18;;;;;;;;;73.00;55.75;;;;;13.68;64.96;99644.91;5053876;28;45334;-57
2022/03/30 08:02:45;;;;;;;;;71.00;56.00;;;;;13.50;65.15;99610.25;5036151;27;45800;-51
2022/03/30 08:05:12;;;;;;;;;78.50;55.75;;;;;13.76;65.02;99640.84;5052458;28;45590;-56
2022/03/30 08:07:40;;;;;;;;;71.25;53.50;;;;;13.68;65.09;99634.69;5051324;28;46361;-56
2022/03/30 08:10:08;;;;;;;;;72.00;55.67;;;;;13.76;65.77;99649.13;5054393;28;45478;-58
2022/03/30 08:12:34;;;;;;;;;72.00;55.25;;;;;13.69;65.74;99630.03;5054482;28;45297;-58
2022/03/30 08:15:00;;;;;;;;;74.00;56.00;;;;;13.78;65.84;99652.44;5054755;28;45236;-53
2022/03/30 08:17:26;;;;;;;;;67.75;53.25;;;;;13.76;66.54;99638.09;5053916;27;45917;-54
2022/03/30 08:19:52;;;;;;;;;69.75;55.00;;;;;13.53;67.00;99623.50;5051992;28;45916;-56
2022/03/30 08:22:26;;;;;;;;;67.50;52.75;;;;;13.63;67.10;99656.72;5053071;28;45295;-54
2022/03/30 08:25:11;;;;;;;;;69.00;53.00;;;;;13.28;67.59;99602.81;5054560;28;45495;-58
2022/03/30 08:27:37;;;;;;;;;69.50;54.00;;;;;13.07;67.48;99571.44;5053008;28;45737;-55
2022/03/30 08:30:05;;;;;;;;;69.00;53.00;;;;;13.62;67.54;99643.19;5052373;28;45414;-57
2022/03/30 08:32:31;;;;;;;;;73.50;55.00;;;;;13.45;69.21;99654.28;5070487;28;45510;-58
2022/03/30 08:34:57;;;;;;;;;70.25;53.00;;;;;13.41;68.92;99638.22;5053419;28;46032;-56
2022/03/30 08:37:23;;;;;;;;;69.00;53.50;;;;;13.34;69.83;99643.13;5053379;28;46371;-56
2022/03/30 08:39:49;;;;;;;;;69.25;53.25;;;;;13.24;68.99;99648.50;5054943;28;45468;-58
2022/03/30 08:42:17;;;;;;;;;67.75;52.75;;;;;13.18;69.42;99628.31;5052113;28;45240;-58
2022/03/30 08:44:43;;;;;;;;;65.50;51.50;;;;;13.38;69.84;99644.28;5054365;28;45428;-56
2022/03/30 08:47:11;;;;;;;;;66.75;51.50;;;;;13.44;68.54;99653.41;5052842;28;45531;-54
2022/03/30 08:49:38;;;;;;;;;68.75;50.50;;;;;12.81;67.59;99536.16;5053121;28;45355;-52
2022/03/30 08:52:08;;;;;;;;;66.75;51.25;;;;;13.65;67.54;99637.97;5053342;28;45335;-54
2022/03/30 08:54:33;;;;;;;;;68.75;54.25;;;;;13.75;67.13;99647.44;5053437;28;45424;-58
2022/03/30 08:56:59;;;;;;;;;68.50;54.25;;;;;13.56;67.48;99620.25;5053812;28;47007;-56
2022/03/30 08:59:25;;;;;;;;;68.75;52.75;;;;;13.74;67.74;99645.78;5053774;28;45546;-52
2022/03/30 09:01:53;;;;;;;;;65.75;53.25;;;;;13.54;67.62;99609.47;5007372;28;45525;-59
2022/03/30 09:04:19;;;;;;;;;68.25;52.00;;;;;13.61;67.12;99612.00;4999533;28;45488;-55
2022/03/30 09:06:48;;;;;;;;;64.50;50.50;;;;;13.86;67.37;99651.97;5018512;28;47395;-52
2022/03/30 09:09:27;;;;;;;;;68.50;50.75;;;;;13.71;67.77;99638.84;5035353;28;45424;-60
2022/03/30 09:11:53;;;;;;;;;68.25;51.25;;;;;13.67;67.88;99634.97;5069041;28;45344;-55
2022/03/30 09:14:20;;;;;;;;;67.00;49.50;;;;;13.52;67.52;99613.59;5051822;28;45446;-49
2022/03/30 09:16:47;;;;;;;;;67.75;52.50;;;;;13.83;67.59;99656.09;5052169;28;46003;-56
2022/03/30 09:19:14;;;;;;;;;60.25;49.25;;;;;13.95;67.12;99655.09;5040293;28;45328;-55
2022/03/30 09:21:57;;;;;;;;;62.50;51.00;;;;;13.62;67.97;99621.97;5052421;28;45394;-54
2022/03/30 09:24:38;;;;;;;;;61.75;49.75;;;;;13.97;68.03;99647.38;5007868;28;45610;-56
2022/03/30 09:27:05;;;;;;;;;66.50;51.75;;;;;14.16;67.29;99650.59;5039943;28;47199;-57
2022/03/30 09:29:33;;;;;;;;;68.00;51.25;;;;;14.18;67.35;99647.56;5055581;28;45455;-55
2022/03/30 09:32:03;;;;;;;;;66.00;51.25;;;;;14.36;66.91;99647.16;5055289;28;45402;-57
2022/03/30 09:34:33;;;;;;;;;70.00;53.75;;;;;14.47;66.72;99637.03;5057007;28;45386;-56
2022/03/30 09:36:58;;;;;;;;;69.00;52.00;;;;;14.30;65.51;99630.84;5051517;28;45908;-57
2022/03/30 09:39:37;;;;;;;;;65.00;53.00;;;;;14.33;65.86;99622.03;5001926;28;45486;-59
2022/03/30 09:42:04;;;;;;;;;72.50;55.00;;;;;14.28;66.20;99602.66;5023561;28;45468;-59
2022/03/30 09:44:30;;;;;;;;;67.50;51.50;;;;;14.54;65.75;99636.81;5033189;28;45613;-55
2022/03/30 09:47:05;;;;;;;;;67.25;54.00;;;;;14.39;64.92;99604.41;5055846;28;46513;-54
2022/03/30 09:49:37;;;;;;;;;67.50;52.00;;;;;14.67;64.69;99643.78;5027735;28;45343;-56
2022/03/30 09:52:28;;;;;;;;;68.00;50.50;;;;;14.63;64.15;99637.16;5033811;28;45375;-55
2022/03/30 09:54:57;;;;;;;;;66.50;52.00;;;;;14.72;64.21;99640.22;5035944;28;45431;-55
2022/03/30 09:57:43;;;;;;;;;68.75;53.00;;;;;14.57;64.34;99646.50;5037916;28;46453;-55
2022/03/30 10:00:10;;;;;;;;;64.50;49.50;;;;;14.59;64.58;99634.09;5045257;28;45287;-53
2022/03/30 10:02:58;;;;;;;;;68.25;52.00;;;;;14.68;64.86;99639.09;5030681;28;45400;-52
2022/03/30 10:05:25;;;;;;;;;66.00;51.75;;;;;14.69;63.96;99626.97;5016674;28;45729;-53
2022/03/30 10:07:52;;;;;;;;;67.00;51.75;;;;;14.77;64.20;99638.38;5019521;28;45797;-51
2022/03/30 10:10:21;;;;;;;;;63.50;50.00;;;;;14.89;63.99;99635.41;5033813;28;45244;-53
2022/03/30 10:12:47;;;;;;;;;65.75;50.00;;;;;14.81;63.43;99633.16;5017482;28;45487;-57
2022/03/30 10:15:13;;;;;;;;;63.00;47.25;;;;;14.81;63.05;99629.53;5036527;28;45530;-52
2022/03/30 10:17:39;;;;;;;;;64.75;51.25;;;;;14.83;63.56;99633.69;5036175;28;45601;-56
2022/03/30 10:20:06;;;;;;;;;64.50;51.25;;;;;14.81;63.81;99629.53;5036137;28;45456;-54
2022/03/30 10:22:53;;;;;;;;;68.00;54.00;;;;;14.93;62.45;99629.34;5012017;28;45418;-55
2022/03/30 10:25:43;;;;;;;;;68.25;53.00;;;;;14.86;62.71;99632.34;5036552;28;45474;-55
2022/03/30 10:28:11;;;;;;;;;72.75;54.00;;;;;14.70;61.70;99612.91;5035125;28;46110;-57
2022/03/30 10:30:39;;;;;;;;;69.75;55.25;;;;;14.53;61.51;99577.19;5017412;28;45365;-53
2022/03/30 10:33:04;;;;;;;;;76.25;57.00;;;;;14.93;62.81;99618.28;5033074;28;45440;-54
2022/03/30 10:35:42;;;;;;;;;68.00;51.75;;;;;15.11;61.71;99622.50;5036402;28;45536;-58
2022/03/30 10:38:08;;;;;;;;;67.50;53.75;;;;;15.00;61.38;99594.81;5034368;28;46780;-55
2022/03/30 10:40:33;;;;;;;;;69.00;53.00;;;;;15.29;61.28;99618.44;5017456;28;45526;-56
2022/03/30 10:43:05;;;;;;;;;71.00;55.25;;;;;15.34;61.00;99620.38;5036098;28;45370;-55
2022/03/30 10:45:39;;;;;;;;;69.50;52.25;;;;;15.30;60.01;99606.28;5033445;28;45605;-56
2022/03/30 10:48:08;;;;;;;;;65.25;50.00;;;;;15.32;60.33;99607.66;5055629;28;45777;-53
2022/03/30 10:50:41;;;;;;;;;67.25;52.75;;;;;15.41;60.04;99604.38;5071336;28;45541;-60
2022/03/30 10:53:28;;;;;;;;;62.25;47.50;;;;;15.38;59.61;99610.44;5055004;28;45464;-55
2022/03/30 10:55:54;;;;;;;;;64.25;50.25;;;;;15.50;58.57;99597.22;5055234;28;45709;-55
2022/03/30 10:58:20;;;;;;;;;69.25;50.00;;;;;15.04;58.70;99546.22;5062393;28;45543;-50
2022/03/30 11:00:45;;;;;;;;;71.75;52.25;;;;;15.37;59.28;99597.72;4989238;27;46093;-56
2022/03/30 11:03:16;;;;;;;;;65.50;51.75;;;;;15.20;58.20;99578.63;5048091;28;45433;-52
2022/03/30 11:05:58;;;;;;;;;64.50;51.50;;;;;15.01;59.00;99557.00;5039894;28;45619;-50
2022/03/30 11:08:33;;;;;;;;;69.25;52.25;;;;;15.16;59.42;99587.44;5045815;28;46937;-55
2022/03/30 11:11:04;;;;;;;;;65.75;50.25;;;;;15.21;59.01;99583.84;5049082;28;45383;-57
2022/03/30 11:13:30;;;;;;;;;65.00;50.25;;;;;15.06;59.86;99558.94;5047423;28;45523;-52
2022/03/30 11:16:01;;;;;;;;;66.75;52.50;;;;;15.17;58.68;99579.97;5048244;28;45571;-58
2022/03/30 11:18:27;;;;;;;;;64.50;50.50;;;;;15.15;59.08;99580.25;5049010;28;46539;-55
2022/03/30 11:21:11;;;;;;;;;63.00;50.25;;;;;15.23;59.31;99587.19;5047742;28;45986;-53